Wetaskiwin, Canada
Current Conditions -  °F | °C
As of 4:00 AM on Sunday 21 Dec 2014 (Local Time) from CYEG Reporting Station
Broken Clouds Broken Clouds  
Wind Chill:   Ceiling: 18000
Heat Index: 21°   Visibility: 15mi
Dew Point: 16°   Wind: 13mph
Humidity: 80%   Direction: 130°SE
Pressure: 29.24"   Gusts: NA
Location:  52.97°N, 113.38°W
Report Text: CYEG 211100Z 13011KT 15SM FEW120 BKN180 BKN240 M06/M09 A2924 RMK AC1AS5CI2 AC TR SLP937
Loading
Personal Weather Stations






























Interactive Weather Map New forecast layout! Learn more

10-Day Weather Forecast

Advertisements
Track Severe Weather on mobile